createdAt,value
2022-09-28T00:00:51.274Z,3.10
2022-09-28T00:02:24.558Z,2.23
2022-09-28T00:03:58.150Z,2.20
2022-09-28T00:05:32.813Z,2.50
2022-09-28T00:07:05.827Z,5.07
2022-09-28T00:08:41.225Z,2.80
2022-09-28T00:10:14.258Z,3.33
2022-09-28T00:11:46.880Z,4.83
2022-09-28T00:13:19.897Z,2.33
2022-09-28T00:14:52.964Z,3.43
2022-09-28T00:16:29.355Z,4.57
2022-09-28T00:18:02.420Z,2.67
2022-09-28T00:19:35.618Z,2.23
2022-09-28T00:21:10.390Z,2.93
2022-09-28T00:22:43.423Z,2.10
2022-09-28T00:24:17.329Z,2.70
2022-09-28T00:25:50.784Z,2.63
2022-09-28T00:27:23.853Z,2.00
2022-09-28T00:28:59.193Z,2.73
2022-09-28T00:30:32.245Z,3.27
2022-09-28T00:32:07.023Z,2.93
2022-09-28T00:33:40.583Z,2.27
2022-09-28T00:35:13.633Z,1.73
2022-09-28T00:36:46.829Z,4.07
2022-09-28T00:38:20.188Z,3.50
2022-09-28T00:39:54.717Z,3.00
2022-09-28T00:41:28.222Z,3.00
2022-09-28T00:43:19.677Z,2.17
2022-09-28T00:44:54.459Z,3.13
2022-09-28T00:46:32.377Z,2.40
2022-09-28T00:48:05.907Z,2.00
2022-09-28T00:49:43.803Z,3.00
2022-09-28T00:51:17.105Z,2.73
2022-09-28T00:52:54.742Z,2.20
2022-09-28T00:54:26.898Z,4.27
2022-09-28T00:56:07.176Z,1.60
2022-09-28T00:57:43.743Z,2.83
2022-09-28T00:59:17.637Z,3.50
2022-09-28T01:00:51.214Z,2.20
2022-09-28T01:02:24.420Z,2.30
2022-09-28T01:03:59.588Z,3.37
2022-09-28T01:05:34.200Z,2.03
2022-09-28T01:07:09.212Z,4.40
2022-09-28T01:08:44.580Z,2.77
2022-09-28T01:10:18.275Z,2.10
2022-09-28T01:11:52.705Z,3.20
2022-09-28T01:13:26.177Z,2.07
2022-09-28T01:15:01.888Z,1.93
2022-09-28T01:16:46.437Z,1.50
2022-09-28T01:19:00.796Z,2.30
2022-09-28T01:20:57.522Z,2.40
2022-09-28T01:22:44.028Z,2.20
2022-09-28T01:24:32.615Z,1.60
2022-09-28T01:26:59.895Z,2.27
2022-09-28T01:28:34.350Z,1.50
2022-09-28T01:30:09.897Z,2.07
2022-09-28T01:31:47.198Z,3.60
2022-09-28T01:33:26.399Z,2.97
2022-09-28T01:35:06.200Z,1.70
2022-09-28T01:36:42.768Z,2.90
2022-09-28T01:38:20.013Z,2.00
2022-09-28T01:39:55.090Z,2.00
2022-09-28T01:41:31.591Z,1.87
2022-09-28T01:43:07.307Z,2.70
2022-09-28T01:44:44.524Z,2.80
2022-09-28T01:46:21.457Z,3.17
2022-09-28T01:47:59.419Z,3.23
2022-09-28T01:49:38.302Z,3.00
2022-09-28T01:51:15.689Z,2.33
2022-09-28T01:52:54.445Z,2.37
2022-09-28T01:54:31.736Z,3.40
2022-09-28T01:56:11.577Z,3.60
2022-09-28T01:57:49.726Z,2.60
2022-09-28T01:59:27.206Z,4.10
2022-09-28T02:01:09.213Z,2.97
2022-09-28T02:02:48.313Z,2.50
2022-09-28T02:04:29.360Z,2.87
2022-09-28T02:06:09.779Z,3.30
2022-09-28T02:07:47.786Z,3.43
2022-09-28T02:09:27.694Z,5.20
2022-09-28T02:11:10.333Z,2.33
2022-09-28T02:12:47.705Z,3.80
2022-09-28T02:14:22.709Z,2.77
2022-09-28T02:16:03.888Z,2.40
2022-09-28T02:17:36.314Z,4.00
2022-09-28T02:19:12.404Z,2.50
2022-09-28T02:20:53.096Z,2.30
2022-09-28T02:22:32.426Z,2.03
2022-09-28T02:24:12.776Z,2.33
2022-09-28T02:25:49.771Z,2.20
2022-09-28T02:27:35.305Z,1.93
2022-09-28T02:29:08.876Z,2.70
2022-09-28T02:30:43.925Z,1.70
2022-09-28T02:32:21.841Z,2.13
2022-09-28T02:33:57.989Z,3.33
2022-09-28T02:35:31.143Z,1.90
2022-09-28T02:37:04.546Z,1.93
2022-09-28T02:38:37.874Z,2.63
2022-09-28T02:40:15.340Z,1.80
2022-09-28T02:41:59.129Z,1.60
2022-09-28T02:43:42.928Z,1.70
2022-09-28T02:45:26.567Z,2.33
2022-09-28T02:47:05.460Z,2.97
2022-09-28T02:49:17.313Z,2.63
2022-09-28T02:51:00.554Z,2.00
2022-09-28T02:52:57.456Z,3.93
2022-09-28T02:54:45.680Z,5.20
2022-09-28T02:56:35.080Z,8.50
2022-09-28T02:58:30.250Z,5.27
2022-09-28T03:00:08.547Z,5.47
2022-09-28T03:01:50.488Z,5.23
2022-09-28T03:03:31.249Z,5.73
2022-09-28T03:05:17.866Z,5.33
2022-09-28T03:06:58.555Z,6.70
2022-09-28T03:08:36.843Z,4.57
2022-09-28T03:10:18.190Z,5.23
2022-09-28T03:11:56.412Z,6.33
2022-09-28T03:13:30.436Z,5.57
2022-09-28T03:15:12.436Z,4.70
2022-09-28T03:16:47.096Z,5.70
2022-09-28T03:18:20.406Z,7.47
2022-09-28T03:19:53.454Z,6.30
2022-09-28T03:21:27.869Z,7.60
2022-09-28T03:23:23.412Z,5.53
2022-09-28T03:24:54.452Z,6.60
2022-09-28T03:26:27.521Z,9.03
2022-09-28T03:28:00.561Z,5.67
2022-09-28T03:29:34.563Z,9.20
2022-09-28T03:31:11.756Z,8.27
2022-09-28T03:32:44.235Z,6.83
2022-09-28T03:34:17.616Z,6.93
2022-09-28T03:35:50.594Z,8.50
2022-09-28T03:37:25.668Z,7.13
2022-09-28T03:38:59.623Z,9.23
2022-09-28T03:40:33.105Z,8.00
2022-09-28T03:42:05.378Z,9.23
2022-09-28T03:43:41.314Z,6.93
2022-09-28T03:45:14.756Z,7.67
2022-09-28T03:46:48.078Z,8.20
2022-09-28T03:48:27.646Z,7.60
2022-09-28T03:50:03.216Z,7.40
2022-09-28T03:51:36.276Z,8.37
2022-09-28T03:53:10.710Z,8.20
2022-09-28T03:54:48.327Z,8.03
2022-09-28T03:56:22.537Z,8.57
2022-09-28T03:57:55.640Z,8.37
2022-09-28T03:59:29.014Z,8.07
2022-09-28T04:01:06.802Z,7.77
2022-09-28T04:02:39.956Z,6.80
2022-09-28T04:04:13.834Z,8.60
2022-09-28T04:05:50.344Z,7.10
2022-09-28T04:07:25.973Z,7.13
2022-09-28T04:09:02.385Z,6.83
2022-09-28T04:10:35.720Z,5.90
2022-09-28T04:12:09.365Z,7.47
2022-09-28T04:13:42.537Z,8.33
2022-09-28T04:15:18.156Z,6.30
2022-09-28T04:16:54.268Z,6.43
2022-09-28T04:18:29.858Z,8.07
2022-09-28T04:20:23.144Z,6.63
2022-09-28T04:22:07.122Z,7.93
2022-09-28T04:23:40.992Z,8.67
2022-09-28T04:25:15.564Z,5.50
2022-09-28T04:26:49.451Z,7.23
2022-09-28T04:28:41.452Z,5.70
2022-09-28T04:30:13.908Z,6.90
2022-09-28T04:31:52.042Z,5.90
2022-09-28T04:33:25.585Z,5.33
2022-09-28T04:34:59.070Z,6.73
2022-09-28T04:36:31.135Z,6.87
2022-09-28T04:38:04.351Z,4.77
2022-09-28T04:39:37.424Z,6.30
2022-09-28T04:41:12.076Z,5.77
2022-09-28T04:42:46.295Z,5.47
2022-09-28T04:44:20.236Z,5.13
2022-09-28T04:46:00.205Z,5.53
2022-09-28T04:47:37.614Z,5.17
2022-09-28T04:49:22.459Z,5.77
2022-09-28T04:51:10.454Z,4.73
2022-09-28T04:52:43.724Z,7.60
2022-09-28T04:54:16.888Z,7.30
2022-09-28T04:56:00.165Z,5.33
2022-09-28T04:57:36.937Z,6.00
2022-09-28T04:59:10.129Z,7.10
2022-09-28T05:00:43.672Z,7.60
2022-09-28T05:02:39.701Z,9.27
2022-09-28T05:04:31.630Z,11.13
2022-09-28T05:06:27.926Z,13.03
2022-09-28T05:08:06.702Z,15.77
2022-09-28T05:09:39.790Z,14.57
2022-09-28T05:11:13.946Z,14.77
2022-09-28T05:12:48.356Z,15.90
2022-09-28T05:14:22.843Z,18.13
2022-09-28T05:16:02.990Z,16.73
2022-09-28T05:17:37.960Z,18.20
2022-09-28T05:19:15.925Z,19.27
2022-09-28T05:20:48.229Z,18.10
2022-09-28T05:22:21.285Z,17.77
2022-09-28T05:23:56.172Z,18.70
2022-09-28T05:25:29.625Z,20.43
2022-09-28T05:27:11.889Z,19.60
2022-09-28T05:28:46.407Z,18.23
2022-09-28T05:30:38.239Z,17.80
2022-09-28T05:32:29.736Z,19.73
2022-09-28T05:34:17.572Z,19.33
2022-09-28T05:35:55.146Z,24.57
2022-09-28T05:37:30.022Z,18.53
2022-09-28T05:39:04.594Z,20.97
2022-09-28T05:40:38.038Z,20.73
2022-09-28T05:42:11.217Z,19.30
2022-09-28T05:43:45.670Z,21.63
2022-09-28T05:45:20.122Z,21.23
2022-09-28T05:46:54.717Z,20.20
2022-09-28T05:48:28.376Z,20.47
2022-09-28T05:50:01.546Z,19.53
2022-09-28T05:51:34.703Z,18.73
2022-09-28T05:53:10.118Z,19.37
2022-09-28T05:54:43.634Z,21.57
2022-09-28T05:56:17.234Z,20.23
2022-09-28T05:57:51.276Z,19.43
2022-09-28T05:59:25.001Z,18.33
2022-09-28T06:00:59.780Z,19.30
2022-09-28T06:02:33.082Z,17.87
2022-09-28T06:04:06.225Z,18.40
2022-09-28T06:05:40.177Z,19.67
2022-09-28T06:07:13.491Z,20.73
2022-09-28T06:08:48.424Z,17.17
2022-09-28T06:10:41.917Z,18.73
2022-09-28T06:12:15.941Z,16.60
2022-09-28T06:13:55.449Z,18.47
2022-09-28T06:15:30.660Z,15.63
2022-09-28T06:17:06.418Z,15.40
2022-09-28T06:18:39.605Z,12.37
2022-09-28T06:20:35.542Z,14.97
2022-09-28T06:22:31.217Z,16.03
2022-09-28T06:24:11.544Z,13.93
2022-09-28T06:25:44.821Z,13.80
2022-09-28T06:27:17.898Z,15.30
2022-09-28T06:28:51.006Z,16.47
2022-09-28T06:30:27.178Z,15.40
2022-09-28T06:32:01.311Z,15.53
2022-09-28T06:33:36.068Z,15.63
2022-09-28T06:35:09.915Z,12.43
2022-09-28T06:36:42.981Z,13.63
2022-09-28T06:38:16.130Z,15.63
2022-09-28T06:39:49.218Z,15.33
2022-09-28T06:41:22.398Z,12.90
2022-09-28T06:42:59.798Z,13.13
2022-09-28T06:44:52.037Z,12.67
2022-09-28T06:46:48.905Z,11.97
2022-09-28T06:48:24.829Z,10.47
2022-09-28T06:49:59.384Z,13.77
2022-09-28T06:51:50.865Z,9.50
2022-09-28T06:53:56.554Z,12.20
2022-09-28T06:55:49.205Z,9.73
2022-09-28T06:57:23.693Z,10.33
2022-09-28T06:58:56.856Z,11.80
2022-09-28T07:00:32.983Z,10.40
2022-09-28T07:02:07.839Z,10.47
2022-09-28T07:04:01.816Z,11.03
2022-09-28T07:06:13.369Z,10.83
2022-09-28T07:08:06.002Z,11.40
2022-09-28T07:10:10.060Z,12.63
2022-09-28T07:11:50.004Z,11.03
2022-09-28T07:13:51.218Z,12.87
2022-09-28T07:15:28.039Z,9.67
2022-09-28T07:17:13.850Z,10.30
2022-09-28T07:18:48.758Z,9.53
2022-09-28T07:20:21.990Z,10.10
2022-09-28T07:22:04.832Z,9.17
2022-09-28T07:23:50.339Z,9.83
2022-09-28T07:25:33.079Z,10.67
2022-09-28T07:27:37.053Z,9.90
2022-09-28T07:29:33.051Z,8.13
2022-09-28T07:31:29.717Z,9.97
2022-09-28T07:33:14.551Z,8.00
2022-09-28T07:34:58.855Z,8.43
2022-09-28T07:36:59.648Z,9.37
2022-09-28T07:38:33.004Z,9.30
2022-09-28T07:40:26.569Z,8.00
2022-09-28T07:42:02.809Z,7.47
2022-09-28T07:43:39.616Z,7.00
2022-09-28T07:45:12.710Z,7.53
2022-09-28T07:46:46.596Z,7.40
2022-09-28T07:48:37.988Z,8.20
2022-09-28T07:50:22.944Z,5.40
2022-09-28T07:52:09.079Z,5.47
2022-09-28T07:53:48.229Z,4.90
2022-09-28T07:55:41.543Z,5.20
2022-09-28T07:57:30.242Z,5.67
2022-09-28T07:59:26.920Z,5.10
2022-09-28T08:01:14.878Z,7.83
2022-09-28T08:02:48.906Z,5.87
2022-09-28T08:04:28.308Z,5.73
2022-09-28T08:06:03.525Z,5.43
2022-09-28T08:07:38.445Z,5.40
2022-09-28T08:09:15.272Z,4.77
2022-09-28T08:11:10.211Z,7.40
2022-09-28T08:13:04.783Z,4.83
2022-09-28T08:15:11.563Z,6.50
2022-09-28T08:16:59.172Z,4.20
2022-09-28T08:18:58.568Z,5.90
2022-09-28T08:20:51.626Z,3.17
2022-09-28T08:22:24.151Z,5.10
2022-09-28T08:24:01.867Z,3.27
2022-09-28T08:25:38.273Z,4.03
2022-09-28T08:27:12.417Z,2.80
2022-09-28T08:28:47.848Z,3.33
2022-09-28T08:30:39.763Z,2.63
2022-09-28T08:32:32.756Z,2.37
2022-09-28T08:34:24.394Z,4.40
2022-09-28T08:36:01.651Z,2.63
2022-09-28T08:37:57.608Z,2.73
2022-09-28T08:39:50.457Z,2.07
2022-09-28T08:41:47.781Z,2.23
2022-09-28T08:43:56.193Z,1.90
2022-09-28T08:45:51.999Z,3.40
2022-09-28T08:48:11.922Z,3.27
2022-09-28T08:50:14.290Z,2.37
2022-09-28T08:52:10.992Z,2.23
2022-09-28T08:54:11.034Z,1.77
2022-09-28T08:56:05.154Z,2.60
2022-09-28T08:57:45.184Z,1.57
2022-09-28T08:59:22.536Z,1.40
2022-09-28T09:01:04.580Z,2.10
2022-09-28T09:02:39.792Z,1.30
2022-09-28T09:04:24.280Z,2.43
2022-09-28T09:06:21.497Z,4.20
2022-09-28T09:08:13.991Z,1.80
2022-09-28T09:09:58.398Z,2.13
2022-09-28T09:11:51.199Z,1.70
2022-09-28T09:13:47.734Z,2.20
2022-09-28T09:15:47.076Z,2.07
2022-09-28T09:17:55.535Z,1.93
2022-09-28T09:19:54.314Z,3.83
2022-09-28T09:22:01.596Z,4.77
2022-09-28T09:23:39.215Z,2.50
2022-09-28T09:25:20.417Z,2.90
2022-09-28T09:27:07.551Z,3.33
2022-09-28T09:29:06.133Z,2.20
2022-09-28T09:30:56.650Z,2.77
2022-09-28T09:32:44.966Z,2.77
2022-09-28T09:34:47.692Z,2.80
2022-09-28T09:36:54.518Z,4.80
2022-09-28T09:38:58.126Z,4.63
2022-09-28T09:40:53.139Z,4.50
2022-09-28T09:43:18.958Z,3.33
2022-09-28T09:45:36.351Z,5.10
2022-09-28T09:47:21.972Z,6.47
2022-09-28T09:49:06.506Z,5.30
2022-09-28T09:50:46.866Z,7.23
2022-09-28T09:52:26.265Z,4.47
2022-09-28T09:54:03.445Z,4.27
2022-09-28T09:55:43.262Z,6.53
2022-09-28T09:57:45.620Z,4.93
2022-09-28T09:59:40.930Z,5.87
2022-09-28T10:01:33.420Z,5.30
2022-09-28T10:03:29.112Z,6.30
2022-09-28T10:05:20.854Z,7.53
2022-09-28T10:06:59.249Z,5.87
2022-09-28T10:08:36.285Z,5.03
2022-09-28T10:10:15.166Z,7.20
2022-09-28T10:11:55.072Z,4.43
2022-09-28T10:13:29.215Z,3.40
2022-09-28T10:15:08.605Z,3.07
2022-09-28T10:16:56.710Z,3.43
2022-09-28T10:18:50.625Z,2.87
2022-09-28T10:20:50.031Z,3.97
2022-09-28T10:22:49.301Z,3.37
2022-09-28T10:24:30.960Z,2.83
2022-09-28T10:26:08.634Z,2.30
2022-09-28T10:27:46.316Z,2.97
2022-09-28T10:29:23.892Z,2.80
2022-09-28T10:30:58.999Z,3.13
2022-09-28T10:32:39.510Z,3.03
2022-09-28T10:34:15.290Z,2.97
2022-09-28T10:35:48.684Z,2.23
2022-09-28T10:37:24.056Z,2.70
2022-09-28T10:39:34.364Z,2.43
2022-09-28T10:41:13.071Z,1.70
2022-09-28T10:43:03.680Z,3.03
2022-09-28T10:44:50.935Z,2.10
2022-09-28T10:46:43.303Z,2.10
2022-09-28T10:48:22.874Z,1.70
2022-09-28T10:49:56.774Z,1.57
2022-09-28T10:51:45.308Z,2.23
2022-09-28T10:53:22.636Z,1.73
2022-09-28T10:55:28.294Z,1.83
2022-09-28T10:57:02.061Z,1.53
2022-09-28T10:58:44.181Z,1.40
2022-09-28T11:00:34.961Z,1.73
2022-09-28T11:02:36.033Z,1.50
2022-09-28T11:04:27.036Z,1.83
2022-09-28T11:06:03.120Z,2.03
2022-09-28T11:07:46.820Z,3.07
2022-09-28T11:09:30.655Z,2.57
2022-09-28T11:11:09.817Z,3.47
2022-09-28T11:12:45.445Z,4.07
2022-09-28T11:14:27.280Z,1.60
2022-09-28T11:16:03.230Z,2.87
2022-09-28T11:17:42.771Z,2.03
2022-09-28T11:19:29.746Z,1.50
2022-09-28T11:21:12.950Z,1.40
2022-09-28T11:22:51.319Z,1.83
2022-09-28T11:24:27.137Z,1.90
2022-09-28T11:26:07.400Z,1.57
2022-09-28T11:27:40.804Z,2.03
2022-09-28T11:29:23.348Z,1.60
2022-09-28T11:31:11.315Z,2.00
2022-09-28T11:33:15.171Z,1.80
2022-09-28T11:35:19.755Z,2.70
2022-09-28T11:37:21.869Z,2.77
2022-09-28T11:39:03.808Z,3.13
2022-09-28T11:41:03.600Z,2.47
2022-09-28T11:42:47.130Z,1.90
2022-09-28T11:44:37.867Z,0.83
2022-09-28T11:46:22.670Z,0.80
2022-09-28T11:47:59.172Z,0.67
2022-09-28T11:49:40.021Z,0.90
2022-09-28T11:51:18.385Z,0.70
2022-09-28T11:52:58.672Z,0.60
2022-09-28T11:54:38.366Z,1.27
2022-09-28T11:56:21.564Z,2.50
2022-09-28T11:58:02.542Z,0.50
2022-09-28T11:59:40.904Z,0.77
2022-09-28T12:01:23.627Z,1.23
2022-09-28T12:03:37.047Z,0.50
2022-09-28T12:05:20.865Z,0.97
2022-09-28T12:06:59.346Z,1.00
2022-09-28T12:08:37.316Z,1.10
2022-09-28T12:10:16.014Z,0.77
2022-09-28T12:11:55.629Z,1.53
2022-09-28T12:13:47.742Z,0.57
2022-09-28T12:15:25.037Z,0.40
2022-09-28T12:17:07.986Z,1.50
2022-09-28T12:18:48.060Z,0.70
2022-09-28T12:20:27.353Z,0.50
2022-09-28T12:22:05.943Z,1.90
2022-09-28T12:23:42.997Z,1.00
2022-09-28T12:25:20.561Z,1.33
2022-09-28T12:26:57.645Z,1.77
2022-09-28T12:28:39.264Z,0.60
2022-09-28T12:30:19.302Z,1.13
2022-09-28T12:31:59.442Z,0.60
2022-09-28T12:33:33.292Z,1.20
2022-09-28T12:35:14.111Z,0.60
2022-09-28T12:36:56.963Z,1.33
2022-09-28T12:38:48.270Z,1.63
2022-09-28T12:40:50.354Z,0.90
2022-09-28T12:42:41.161Z,1.87
2022-09-28T12:44:27.602Z,1.00
2022-09-28T12:46:25.081Z,0.73
2022-09-28T12:48:26.192Z,0.80
2022-09-28T12:52:24.023Z,0.53
2022-09-28T12:54:05.622Z,2.10
2022-09-28T12:55:56.342Z,0.67
2022-09-28T12:57:43.568Z,1.13
2022-09-28T12:59:21.551Z,0.60
2022-09-28T13:01:12.400Z,0.60
2022-09-28T13:03:22.008Z,1.27
2022-09-28T13:05:13.643Z,0.70
2022-09-28T13:06:57.350Z,0.70
2022-09-28T13:08:40.946Z,1.07
2022-09-28T13:10:19.964Z,0.77
2022-09-28T13:12:16.173Z,1.63
2022-09-28T13:13:57.410Z,5.43
2022-09-28T13:15:45.050Z,8.17
2022-09-28T13:17:25.717Z,8.50
2022-09-28T13:19:09.693Z,1.63
2022-09-28T13:21:04.759Z,1.90
2022-09-28T13:22:49.921Z,3.10
2022-09-28T13:24:32.595Z,3.27
2022-09-28T13:26:15.990Z,1.97
2022-09-28T13:27:54.356Z,1.70
2022-09-28T13:29:28.384Z,1.30
2022-09-28T13:31:02.638Z,2.00
2022-09-28T13:32:38.978Z,2.90
2022-09-28T13:34:22.366Z,1.63
2022-09-28T13:35:55.589Z,1.43
2022-09-28T13:37:29.637Z,1.07
2022-09-28T13:39:02.918Z,1.10
2022-09-28T13:41:09.885Z,1.10
2022-09-28T13:43:07.936Z,1.00
2022-09-28T13:45:04.177Z,0.90
2022-09-28T13:46:44.312Z,2.87
2022-09-28T13:48:21.015Z,0.70
2022-09-28T13:50:06.849Z,0.87
2022-09-28T13:51:52.773Z,1.67
2022-09-28T13:53:32.854Z,1.27
2022-09-28T13:55:23.593Z,1.23
2022-09-28T13:57:11.034Z,1.43
2022-09-28T13:58:51.672Z,0.70
2022-09-28T14:00:29.731Z,0.60
2022-09-28T14:02:14.850Z,2.23
2022-09-28T14:03:57.190Z,1.00
2022-09-28T14:05:48.481Z,0.70
2022-09-28T14:07:22.995Z,0.87
2022-09-28T14:09:23.568Z,0.93
2022-09-28T14:10:57.847Z,1.63
2022-09-28T14:12:47.515Z,1.07
2022-09-28T14:14:49.190Z,0.80
2022-09-28T14:16:24.240Z,1.10
2022-09-28T14:18:05.405Z,1.10
2022-09-28T14:19:39.121Z,0.87
2022-09-28T14:21:44.932Z,1.87
2022-09-28T14:23:46.469Z,1.53
2022-09-28T14:25:24.342Z,1.30
2022-09-28T14:27:27.325Z,1.40
2022-09-28T14:29:16.301Z,1.40
2022-09-28T14:30:53.103Z,0.97
2022-09-28T14:32:36.124Z,1.37
2022-09-28T14:34:25.769Z,1.20
2022-09-28T14:36:02.182Z,0.90
2022-09-28T14:37:54.903Z,1.37
2022-09-28T14:39:49.216Z,2.13
2022-09-28T14:41:34.567Z,1.57
2022-09-28T14:43:28.863Z,2.77
2022-09-28T14:45:36.232Z,1.40
2022-09-28T14:47:37.987Z,1.97
2022-09-28T14:49:47.540Z,1.70
2022-09-28T14:51:45.395Z,2.33
2022-09-28T14:53:24.786Z,1.93
2022-09-28T14:54:58.297Z,1.80
2022-09-28T14:56:39.313Z,1.83
2022-09-28T14:58:19.624Z,1.70
2022-09-28T14:59:53.957Z,1.70
2022-09-28T15:01:27.743Z,2.40
2022-09-28T15:03:11.396Z,2.00
2022-09-28T15:04:49.467Z,2.20
2022-09-28T15:06:24.726Z,3.23
2022-09-28T15:07:58.442Z,2.40
2022-09-28T15:09:33.680Z,2.50
2022-09-28T15:11:08.303Z,1.47
2022-09-28T15:12:45.001Z,1.70
2022-09-28T15:14:18.965Z,2.53
2022-09-28T15:15:55.702Z,1.67
2022-09-28T15:17:33.637Z,2.23
2022-09-28T15:19:24.601Z,1.27
2022-09-28T15:20:58.650Z,2.33
2022-09-28T15:22:33.015Z,2.90
2022-09-28T15:24:32.424Z,4.43
2022-09-28T15:26:07.726Z,5.13
2022-09-28T15:27:41.226Z,1.87
2022-09-28T15:29:19.476Z,3.60
2022-09-28T15:30:59.662Z,3.30
2022-09-28T15:32:32.765Z,2.50
2022-09-28T15:34:22.391Z,1.37
2022-09-28T15:36:01.426Z,2.60
2022-09-28T15:37:40.708Z,2.20
2022-09-28T15:39:17.063Z,2.37
2022-09-28T15:40:50.350Z,2.93
2022-09-28T15:42:24.083Z,1.90
2022-09-28T15:44:21.033Z,2.10
2022-09-28T15:46:02.890Z,3.47
2022-09-28T15:47:39.954Z,7.13
2022-09-28T15:49:26.172Z,13.27
2022-09-28T15:51:10.739Z,11.13
2022-09-28T15:52:47.211Z,6.43
2022-09-28T15:54:24.846Z,11.10
2022-09-28T15:56:05.634Z,4.03
2022-09-28T15:57:40.916Z,3.00
2022-09-28T15:59:23.958Z,3.67
2022-09-28T16:01:31.982Z,3.50
2022-09-28T16:03:22.518Z,2.03
2022-09-28T16:04:58.744Z,2.10
2022-09-28T16:06:33.289Z,2.47
2022-09-28T16:08:13.113Z,2.17
2022-09-28T16:09:57.202Z,3.53
2022-09-28T16:11:37.954Z,2.17
2022-09-28T16:13:17.116Z,2.77
2022-09-28T16:14:51.226Z,2.20
2022-09-28T16:16:28.830Z,2.50
2022-09-28T16:18:06.772Z,2.80
2022-09-28T16:19:40.144Z,4.33
2022-09-28T16:21:29.954Z,2.87
2022-09-28T16:23:17.378Z,3.13
2022-09-28T16:24:56.787Z,4.23
2022-09-28T16:26:33.222Z,3.67
2022-09-28T16:28:07.435Z,3.40
2022-09-28T16:29:42.008Z,4.83
2022-09-28T16:31:27.849Z,5.93
2022-09-28T16:33:02.848Z,4.13
2022-09-28T16:34:37.820Z,2.83
2022-09-28T16:36:14.083Z,3.43
2022-09-28T16:37:48.817Z,2.10
2022-09-28T16:39:23.275Z,3.20
2022-09-28T16:40:59.453Z,2.40
2022-09-28T16:42:33.474Z,2.40
2022-09-28T16:44:16.196Z,2.93
2022-09-28T16:45:50.219Z,3.20
2022-09-28T16:47:23.914Z,2.07
2022-09-28T16:48:57.023Z,3.07
2022-09-28T16:50:30.150Z,3.20
2022-09-28T16:52:03.430Z,3.53
2022-09-28T16:53:55.108Z,4.67
2022-09-28T16:55:40.046Z,5.30
2022-09-28T16:57:16.485Z,3.67
2022-09-28T16:58:50.359Z,4.60
2022-09-28T17:00:25.938Z,3.43
2022-09-28T17:01:59.455Z,3.50
2022-09-28T17:03:32.701Z,2.67
2022-09-28T17:05:07.058Z,3.33
2022-09-28T17:06:40.156Z,3.63
2022-09-28T17:08:17.334Z,3.60
2022-09-28T17:09:50.602Z,5.23
2022-09-28T17:11:25.368Z,5.23
2022-09-28T17:12:59.162Z,4.60
2022-09-28T17:14:32.783Z,5.83
2022-09-28T17:16:10.407Z,4.67
2022-09-28T17:17:43.546Z,4.97
2022-09-28T17:19:19.972Z,4.43
2022-09-28T17:20:56.739Z,5.10
2022-09-28T17:22:29.911Z,5.97
2022-09-28T17:24:03.137Z,3.90
2022-09-28T17:25:37.534Z,3.43
2022-09-28T17:27:19.756Z,4.27
2022-09-28T17:28:53.038Z,3.33
2022-09-28T17:30:26.814Z,4.53
2022-09-28T17:31:59.968Z,3.83
2022-09-28T17:33:33.025Z,6.83
2022-09-28T17:35:23.632Z,5.37
2022-09-28T17:36:57.490Z,4.10
2022-09-28T17:38:30.574Z,4.37
2022-09-28T17:40:03.609Z,3.73
2022-09-28T17:41:37.513Z,3.57
2022-09-28T17:43:12.292Z,3.77
2022-09-28T17:44:45.347Z,3.73
2022-09-28T17:46:27.493Z,3.87
2022-09-28T17:48:01.158Z,3.70
2022-09-28T17:49:34.220Z,3.90
2022-09-28T17:51:07.323Z,3.50
2022-09-28T17:52:40.856Z,4.77
2022-09-28T17:54:16.708Z,5.60
2022-09-28T17:55:50.452Z,2.97
2022-09-28T17:57:23.532Z,3.00
2022-09-28T17:59:00.382Z,3.40
2022-09-28T18:00:34.105Z,4.37
2022-09-28T18:02:07.470Z,4.33
2022-09-28T18:03:40.592Z,3.57
2022-09-28T18:05:14.759Z,3.50
2022-09-28T18:06:47.810Z,3.57
2022-09-28T18:08:22.279Z,3.30
2022-09-28T18:09:56.811Z,4.00
2022-09-28T18:11:30.038Z,3.73
2022-09-28T18:13:03.056Z,7.10
2022-09-28T18:14:39.826Z,4.73
2022-09-28T18:16:13.719Z,5.47
2022-09-28T18:17:46.784Z,6.03
2022-09-28T18:19:19.837Z,5.53
2022-09-28T18:20:53.191Z,7.73
2022-09-28T18:22:26.222Z,4.73
2022-09-28T18:23:59.280Z,5.57
2022-09-28T18:25:32.382Z,6.63
2022-09-28T18:27:05.670Z,4.53
2022-09-28T18:28:38.876Z,4.90
2022-09-28T18:30:13.562Z,7.60
2022-09-28T18:31:48.601Z,5.60
2022-09-28T18:33:21.650Z,5.60
2022-09-28T18:34:54.714Z,5.30
2022-09-28T18:36:30.065Z,5.10
2022-09-28T18:38:05.165Z,7.53
2022-09-28T18:39:38.569Z,4.33
2022-09-28T18:41:15.442Z,4.80
2022-09-28T18:42:51.245Z,4.90
2022-09-28T18:44:24.343Z,5.77
2022-09-28T18:45:58.792Z,5.17
2022-09-28T18:47:31.924Z,4.97
2022-09-28T18:49:05.429Z,4.87
2022-09-28T18:50:38.475Z,5.00
2022-09-28T18:52:11.730Z,4.53
2022-09-28T18:53:44.782Z,4.73
2022-09-28T18:55:18.201Z,5.00
2022-09-28T18:56:54.816Z,4.17
2022-09-28T18:58:28.373Z,4.93
2022-09-28T19:00:01.776Z,6.83
2022-09-28T19:01:37.840Z,5.07
2022-09-28T19:03:14.369Z,5.80
2022-09-28T19:04:47.581Z,4.17
2022-09-28T19:06:21.291Z,5.03
2022-09-28T19:07:55.070Z,4.87
2022-09-28T19:09:28.381Z,5.13
2022-09-28T19:11:06.563Z,5.87
2022-09-28T19:12:39.669Z,6.07
2022-09-28T19:14:15.060Z,6.53
2022-09-28T19:15:48.194Z,4.90
2022-09-28T19:17:22.692Z,5.23
2022-09-28T19:18:57.038Z,4.80
2022-09-28T19:20:33.922Z,5.23
2022-09-28T19:22:07.045Z,4.53
2022-09-28T19:23:40.694Z,7.17
2022-09-28T19:25:15.787Z,5.83
2022-09-28T19:26:49.508Z,6.13
2022-09-28T19:28:22.610Z,9.13
2022-09-28T19:29:55.669Z,7.10
2022-09-28T19:31:29.633Z,7.13
2022-09-28T19:33:04.052Z,8.53
2022-09-28T19:34:38.038Z,7.80
2022-09-28T19:36:13.184Z,10.77
2022-09-28T19:37:46.714Z,12.93
2022-09-28T19:39:19.830Z,10.67
2022-09-28T19:40:52.925Z,8.50
2022-09-28T19:42:26.064Z,9.23
2022-09-28T19:43:59.168Z,8.67
2022-09-28T19:45:32.210Z,8.50
2022-09-28T19:47:08.296Z,9.97
2022-09-28T19:48:43.356Z,9.27
2022-09-28T19:50:16.557Z,9.67
2022-09-28T19:52:11.405Z,7.50
2022-09-28T19:53:44.290Z,7.37
2022-09-28T19:55:21.190Z,6.60
2022-09-28T19:56:54.813Z,7.43
2022-09-28T19:58:31.965Z,8.40
2022-09-28T20:00:06.308Z,7.47
2022-09-28T20:01:39.543Z,8.60
2022-09-28T20:03:12.688Z,9.90
2022-09-28T20:04:47.435Z,7.37
2022-09-28T20:06:20.623Z,6.37
2022-09-28T20:07:53.717Z,7.37
2022-09-28T20:09:26.848Z,6.80
2022-09-28T20:11:01.302Z,8.07
2022-09-28T20:12:34.434Z,10.47
2022-09-28T20:14:09.786Z,10.37
2022-09-28T20:15:43.011Z,7.67
2022-09-28T20:17:16.102Z,9.00
2022-09-28T20:18:50.328Z,8.43
2022-09-28T20:20:26.342Z,7.73
2022-09-28T20:22:02.590Z,8.23
2022-09-28T20:23:36.763Z,8.20
2022-09-28T20:25:09.977Z,7.10
2022-09-28T20:26:43.375Z,7.73
2022-09-28T20:28:16.438Z,7.73
2022-09-28T20:29:49.490Z,9.23
2022-09-28T20:31:23.725Z,7.90
2022-09-28T20:32:56.781Z,9.53
2022-09-28T20:34:29.884Z,7.20
2022-09-28T20:36:07.673Z,6.77
2022-09-28T20:37:40.697Z,7.37
2022-09-28T20:39:13.950Z,8.30
2022-09-28T20:40:48.095Z,10.20
2022-09-28T20:42:21.201Z,8.00
2022-09-28T20:43:55.494Z,7.43
2022-09-28T20:45:28.564Z,8.00
2022-09-28T20:47:01.994Z,11.30
2022-09-28T20:48:35.358Z,9.03
2022-09-28T20:50:09.471Z,8.97
2022-09-28T20:51:43.906Z,8.73
2022-09-28T20:53:16.933Z,6.77
2022-09-28T20:54:50.182Z,10.43
2022-09-28T20:56:24.642Z,8.30
2022-09-28T20:57:57.705Z,8.67
2022-09-28T20:59:31.161Z,7.43
2022-09-28T21:01:08.006Z,8.80
2022-09-28T21:02:41.168Z,10.97
2022-09-28T21:04:14.266Z,7.93
2022-09-28T21:05:47.462Z,7.13
2022-09-28T21:07:21.880Z,7.20
2022-09-28T21:08:55.360Z,7.70
2022-09-28T21:10:30.248Z,7.40
2022-09-28T21:12:03.488Z,10.53
2022-09-28T21:13:36.569Z,6.27
2022-09-28T21:15:10.534Z,6.07
2022-09-28T21:16:43.581Z,6.10
2022-09-28T21:18:15.721Z,6.97
2022-09-28T21:19:48.782Z,6.00
2022-09-28T21:21:23.283Z,8.43
2022-09-28T21:22:57.702Z,8.93
2022-09-28T21:24:30.762Z,9.17
2022-09-28T21:26:06.422Z,9.43
2022-09-28T21:27:39.464Z,8.37
2022-09-28T21:29:14.434Z,6.17
2022-09-28T21:30:46.774Z,7.73
2022-09-28T21:32:19.854Z,6.63
2022-09-28T21:33:53.103Z,8.33
2022-09-28T21:35:26.136Z,8.00
2022-09-28T21:36:59.234Z,7.10
2022-09-28T21:38:34.160Z,5.67
2022-09-28T21:40:09.780Z,7.13
2022-09-28T21:41:43.406Z,5.63
2022-09-28T21:43:17.133Z,7.20
2022-09-28T21:44:50.173Z,6.87
2022-09-28T21:46:23.420Z,6.63
2022-09-28T21:47:56.502Z,8.17
2022-09-28T21:49:29.750Z,8.80
2022-09-28T21:51:04.901Z,7.23
2022-09-28T21:52:37.914Z,8.10
2022-09-28T21:54:12.490Z,6.53
2022-09-28T21:55:45.836Z,6.10
2022-09-28T21:57:18.994Z,5.80
2022-09-28T21:58:52.444Z,7.57
2022-09-28T22:00:25.501Z,7.10
2022-09-28T22:01:58.579Z,7.77
2022-09-28T22:03:32.922Z,7.30
2022-09-28T22:05:07.172Z,6.80
2022-09-28T22:06:40.230Z,8.00
2022-09-28T22:08:13.712Z,7.90
2022-09-28T22:09:51.605Z,9.00